sensor_id;sensor_type;location;lat;lon;timestamp;P1;durP1;ratioP1;P2;durP2;ratioP2
52542;SDS011;38449;52.696;6.186;2023-05-31T00:01:53;6.15;;;3.50;;
52542;SDS011;38449;52.696;6.186;2023-05-31T00:04:19;8.95;;;3.38;;
52542;SDS011;38449;52.696;6.186;2023-05-31T00:06:45;6.53;;;3.70;;
52542;SDS011;38449;52.696;6.186;2023-05-31T00:09:11;5.35;;;3.30;;
52542;SDS011;38449;52.696;6.186;2023-05-31T00:11:38;5.78;;;3.80;;
52542;SDS011;38449;52.696;6.186;2023-05-31T00:14:04;9.57;;;3.88;;
52542;SDS011;38449;52.696;6.186;2023-05-31T00:16:30;8.10;;;4.05;;
52542;SDS011;38449;52.696;6.186;2023-05-31T00:18:56;7.93;;;3.60;;
52542;SDS011;38449;52.696;6.186;2023-05-31T00:21:23;6.90;;;3.70;;
52542;SDS011;38449;52.696;6.186;2023-05-31T00:23:50;6.47;;;3.72;;
52542;SDS011;38449;52.696;6.186;2023-05-31T00:26:16;7.43;;;3.85;;
52542;SDS011;38449;52.696;6.186;2023-05-31T00:28:43;7.93;;;3.95;;
52542;SDS011;38449;52.696;6.186;2023-05-31T00:31:09;7.75;;;3.97;;
52542;SDS011;38449;52.696;6.186;2023-05-31T00:33:35;9.55;;;4.05;;
52542;SDS011;38449;52.696;6.186;2023-05-31T00:36:02;6.72;;;3.88;;
52542;SDS011;38449;52.696;6.186;2023-05-31T00:38:28;7.30;;;4.30;;
52542;SDS011;38449;52.696;6.186;2023-05-31T00:40:55;8.73;;;3.70;;
52542;SDS011;38449;52.696;6.186;2023-05-31T00:43:21;7.45;;;3.95;;
52542;SDS011;38449;52.696;6.186;2023-05-31T00:45:47;6.85;;;3.70;;
52542;SDS011;38449;52.696;6.186;2023-05-31T00:48:14;7.75;;;3.60;;
52542;SDS011;38449;52.696;6.186;2023-05-31T00:50:40;6.75;;;3.90;;
52542;SDS011;38449;52.696;6.186;2023-05-31T00:53:07;7.22;;;3.80;;
52542;SDS011;38449;52.696;6.186;2023-05-31T00:55:33;6.13;;;3.30;;
52542;SDS011;38449;52.696;6.186;2023-05-31T00:58:01;6.60;;;3.80;;
52542;SDS011;38449;52.696;6.186;2023-05-31T01:00:28;7.20;;;3.55;;
52542;SDS011;38449;52.696;6.186;2023-05-31T01:02:55;6.20;;;3.72;;
52542;SDS011;38449;52.696;6.186;2023-05-31T01:05:21;7.50;;;3.45;;
52542;SDS011;38449;52.696;6.186;2023-05-31T01:07:48;5.82;;;3.70;;
52542;SDS011;38449;52.696;6.186;2023-05-31T01:10:14;5.80;;;3.72;;
52542;SDS011;38449;52.696;6.186;2023-05-31T01:12:59;7.82;;;3.78;;
52542;SDS011;38449;52.696;6.186;2023-05-31T01:15:37;6.47;;;3.55;;
52542;SDS011;38449;52.696;6.186;2023-05-31T01:20:51;9.50;;;4.05;;
52542;SDS011;38449;52.696;6.186;2023-05-31T01:26:05;7.55;;;3.92;;
52542;SDS011;38449;52.696;6.186;2023-05-31T01:28:59;9.82;;;4.30;;
52542;SDS011;38449;52.696;6.186;2023-05-31T01:31:27;7.95;;;3.95;;
52542;SDS011;38449;52.696;6.186;2023-05-31T01:33:55;7.70;;;4.18;;
52542;SDS011;38449;52.696;6.186;2023-05-31T01:36:22;7.25;;;3.72;;
52542;SDS011;38449;52.696;6.186;2023-05-31T01:38:49;8.35;;;4.28;;
52542;SDS011;38449;52.696;6.186;2023-05-31T01:41:15;8.48;;;4.30;;
52542;SDS011;38449;52.696;6.186;2023-05-31T01:43:44;9.65;;;4.22;;
52542;SDS011;38449;52.696;6.186;2023-05-31T01:46:12;7.00;;;4.60;;
52542;SDS011;38449;52.696;6.186;2023-05-31T01:48:42;6.80;;;3.97;;
52542;SDS011;38449;52.696;6.186;2023-05-31T01:51:09;10.38;;;4.43;;
52542;SDS011;38449;52.696;6.186;2023-05-31T01:53:37;8.48;;;4.70;;
52542;SDS011;38449;52.696;6.186;2023-05-31T01:56:04;7.72;;;4.32;;
52542;SDS011;38449;52.696;6.186;2023-05-31T01:58:31;8.30;;;4.50;;
52542;SDS011;38449;52.696;6.186;2023-05-31T02:00:58;6.93;;;4.10;;
52542;SDS011;38449;52.696;6.186;2023-05-31T02:03:24;7.47;;;4.40;;
52542;SDS011;38449;52.696;6.186;2023-05-31T02:05:57;9.00;;;4.70;;
52542;SDS011;38449;52.696;6.186;2023-05-31T02:08:25;7.95;;;4.25;;
52542;SDS011;38449;52.696;6.186;2023-05-31T02:10:52;6.45;;;4.35;;
52542;SDS011;38449;52.696;6.186;2023-05-31T02:13:19;7.45;;;4.05;;
52542;SDS011;38449;52.696;6.186;2023-05-31T02:15:46;9.32;;;4.57;;
52542;SDS011;38449;52.696;6.186;2023-05-31T02:18:12;8.15;;;4.68;;
52542;SDS011;38449;52.696;6.186;2023-05-31T02:20:42;7.97;;;4.43;;
52542;SDS011;38449;52.696;6.186;2023-05-31T02:23:09;9.48;;;4.60;;
52542;SDS011;38449;52.696;6.186;2023-05-31T02:25:35;7.72;;;4.43;;
52542;SDS011;38449;52.696;6.186;2023-05-31T02:28:02;7.70;;;4.53;;
52542;SDS011;38449;52.696;6.186;2023-05-31T02:30:29;9.93;;;4.88;;
52542;SDS011;38449;52.696;6.186;2023-05-31T02:32:57;7.93;;;4.53;;
52542;SDS011;38449;52.696;6.186;2023-05-31T02:35:25;7.90;;;5.03;;
52542;SDS011;38449;52.696;6.186;2023-05-31T02:37:52;10.05;;;4.50;;
52542;SDS011;38449;52.696;6.186;2023-05-31T02:40:18;8.07;;;4.57;;
52542;SDS011;38449;52.696;6.186;2023-05-31T02:42:44;8.85;;;4.68;;
52542;SDS011;38449;52.696;6.186;2023-05-31T02:45:10;7.60;;;4.70;;
52542;SDS011;38449;52.696;6.186;2023-05-31T02:47:37;9.20;;;4.25;;
52542;SDS011;38449;52.696;6.186;2023-05-31T02:50:07;8.35;;;4.90;;
52542;SDS011;38449;52.696;6.186;2023-05-31T02:52:35;9.98;;;4.78;;
52542;SDS011;38449;52.696;6.186;2023-05-31T02:55:02;12.18;;;5.60;;
52542;SDS011;38449;52.696;6.186;2023-05-31T02:57:29;9.57;;;5.63;;
52542;SDS011;38449;52.696;6.186;2023-05-31T02:59:57;9.60;;;5.38;;
52542;SDS011;38449;52.696;6.186;2023-05-31T03:02:24;8.23;;;5.53;;
52542;SDS011;38449;52.696;6.186;2023-05-31T03:04:50;8.88;;;5.20;;
52542;SDS011;38449;52.696;6.186;2023-05-31T03:07:17;9.02;;;4.85;;
52542;SDS011;38449;52.696;6.186;2023-05-31T03:09:43;10.00;;;5.00;;
52542;SDS011;38449;52.696;6.186;2023-05-31T03:12:10;7.93;;;5.20;;
52542;SDS011;38449;52.696;6.186;2023-05-31T03:14:36;9.48;;;5.13;;
52542;SDS011;38449;52.696;6.186;2023-05-31T03:17:02;9.45;;;5.32;;
52542;SDS011;38449;52.696;6.186;2023-05-31T03:19:29;10.82;;;5.47;;
52542;SDS011;38449;52.696;6.186;2023-05-31T03:21:55;8.82;;;5.10;;
52542;SDS011;38449;52.696;6.186;2023-05-31T03:24:21;9.98;;;5.65;;
52542;SDS011;38449;52.696;6.186;2023-05-31T03:26:48;11.25;;;5.72;;
52542;SDS011;38449;52.696;6.186;2023-05-31T03:29:14;10.13;;;5.47;;
52542;SDS011;38449;52.696;6.186;2023-05-31T03:31:40;10.77;;;5.35;;
52542;SDS011;38449;52.696;6.186;2023-05-31T03:34:06;8.60;;;5.70;;
52542;SDS011;38449;52.696;6.186;2023-05-31T03:36:33;8.85;;;5.22;;
52542;SDS011;38449;52.696;6.186;2023-05-31T03:39:02;11.50;;;5.95;;
52542;SDS011;38449;52.696;6.186;2023-05-31T03:41:29;11.23;;;5.80;;
52542;SDS011;38449;52.696;6.186;2023-05-31T03:43:55;12.15;;;5.40;;
52542;SDS011;38449;52.696;6.186;2023-05-31T03:46:22;8.30;;;5.07;;
52542;SDS011;38449;52.696;6.186;2023-05-31T03:48:48;8.20;;;5.30;;
52542;SDS011;38449;52.696;6.186;2023-05-31T03:51:15;7.90;;;4.97;;
52542;SDS011;38449;52.696;6.186;2023-05-31T03:53:42;8.70;;;5.63;;
52542;SDS011;38449;52.696;6.186;2023-05-31T03:56:08;10.63;;;6.15;;
52542;SDS011;38449;52.696;6.186;2023-05-31T03:58:34;9.25;;;5.35;;
52542;SDS011;38449;52.696;6.186;2023-05-31T04:01:00;10.00;;;5.90;;
52542;SDS011;38449;52.696;6.186;2023-05-31T04:03:28;9.48;;;5.30;;
52542;SDS011;38449;52.696;6.186;2023-05-31T04:05:54;9.15;;;5.20;;
52542;SDS011;38449;52.696;6.186;2023-05-31T04:08:20;11.23;;;5.32;;
52542;SDS011;38449;52.696;6.186;2023-05-31T04:10:47;9.82;;;5.45;;
52542;SDS011;38449;52.696;6.186;2023-05-31T04:13:13;9.80;;;5.65;;
52542;SDS011;38449;52.696;6.186;2023-05-31T04:15:39;9.95;;;5.50;;
52542;SDS011;38449;52.696;6.186;2023-05-31T04:18:06;11.40;;;5.85;;
52542;SDS011;38449;52.696;6.186;2023-05-31T04:20:32;10.68;;;5.70;;
52542;SDS011;38449;52.696;6.186;2023-05-31T04:22:58;10.00;;;5.85;;
52542;SDS011;38449;52.696;6.186;2023-05-31T04:25:24;11.98;;;5.57;;
52542;SDS011;38449;52.696;6.186;2023-05-31T04:27:51;13.05;;;5.95;;
52542;SDS011;38449;52.696;6.186;2023-05-31T04:30:17;11.07;;;5.63;;
52542;SDS011;38449;52.696;6.186;2023-05-31T04:32:43;13.23;;;6.35;;
52542;SDS011;38449;52.696;6.186;2023-05-31T04:35:09;12.15;;;6.05;;
52542;SDS011;38449;52.696;6.186;2023-05-31T04:37:37;11.75;;;6.03;;
52542;SDS011;38449;52.696;6.186;2023-05-31T04:40:05;12.10;;;6.57;;
52542;SDS011;38449;52.696;6.186;2023-05-31T04:42:34;15.23;;;6.03;;
52542;SDS011;38449;52.696;6.186;2023-05-31T04:45:02;12.40;;;6.25;;
52542;SDS011;38449;52.696;6.186;2023-05-31T04:47:30;10.52;;;5.65;;
52542;SDS011;38449;52.696;6.186;2023-05-31T04:49:57;12.70;;;5.63;;
52542;SDS011;38449;52.696;6.186;2023-05-31T04:52:24;13.82;;;5.90;;
52542;SDS011;38449;52.696;6.186;2023-05-31T04:54:54;11.27;;;6.20;;
52542;SDS011;38449;52.696;6.186;2023-05-31T04:57:22;11.98;;;6.82;;
52542;SDS011;38449;52.696;6.186;2023-05-31T04:59:48;11.00;;;6.78;;
52542;SDS011;38449;52.696;6.186;2023-05-31T05:02:16;10.82;;;6.03;;
52542;SDS011;38449;52.696;6.186;2023-05-31T05:04:43;10.82;;;6.13;;
52542;SDS011;38449;52.696;6.186;2023-05-31T05:07:09;9.63;;;6.15;;
52542;SDS011;38449;52.696;6.186;2023-05-31T05:09:35;10.93;;;6.65;;
52542;SDS011;38449;52.696;6.186;2023-05-31T05:12:02;16.98;;;6.13;;
52542;SDS011;38449;52.696;6.186;2023-05-31T05:14:29;10.60;;;6.07;;
52542;SDS011;38449;52.696;6.186;2023-05-31T05:16:56;9.63;;;6.05;;
52542;SDS011;38449;52.696;6.186;2023-05-31T05:19:22;10.18;;;6.18;;
52542;SDS011;38449;52.696;6.186;2023-05-31T05:21:48;11.75;;;6.50;;
52542;SDS011;38449;52.696;6.186;2023-05-31T05:24:15;12.63;;;6.78;;
52542;SDS011;38449;52.696;6.186;2023-05-31T05:26:42;10.35;;;5.97;;
52542;SDS011;38449;52.696;6.186;2023-05-31T05:29:09;10.20;;;5.80;;
52542;SDS011;38449;52.696;6.186;2023-05-31T05:31:35;13.23;;;6.32;;
52542;SDS011;38449;52.696;6.186;2023-05-31T05:34:01;10.45;;;6.00;;
52542;SDS011;38449;52.696;6.186;2023-05-31T05:36:28;8.35;;;5.50;;
52542;SDS011;38449;52.696;6.186;2023-05-31T05:38:55;11.90;;;6.22;;
52542;SDS011;38449;52.696;6.186;2023-05-31T05:41:24;11.93;;;6.55;;
52542;SDS011;38449;52.696;6.186;2023-05-31T05:43:51;10.63;;;6.43;;
52542;SDS011;38449;52.696;6.186;2023-05-31T05:46:17;11.30;;;6.25;;
52542;SDS011;38449;52.696;6.186;2023-05-31T05:48:43;10.10;;;6.38;;
52542;SDS011;38449;52.696;6.186;2023-05-31T05:51:10;11.48;;;6.43;;
52542;SDS011;38449;52.696;6.186;2023-05-31T05:53:36;11.23;;;7.45;;
52542;SDS011;38449;52.696;6.186;2023-05-31T05:56:02;16.38;;;6.72;;
52542;SDS011;38449;52.696;6.186;2023-05-31T05:58:29;10.80;;;6.65;;
52542;SDS011;38449;52.696;6.186;2023-05-31T06:00:56;12.15;;;7.18;;
52542;SDS011;38449;52.696;6.186;2023-05-31T06:03:22;10.10;;;6.07;;
52542;SDS011;38449;52.696;6.186;2023-05-31T06:05:49;10.25;;;5.72;;
52542;SDS011;38449;52.696;6.186;2023-05-31T06:08:15;10.35;;;6.20;;
52542;SDS011;38449;52.696;6.186;2023-05-31T06:10:42;13.45;;;6.50;;
52542;SDS011;38449;52.696;6.186;2023-05-31T06:13:08;7.93;;;5.63;;
52542;SDS011;38449;52.696;6.186;2023-05-31T06:15:34;11.20;;;6.43;;
52542;SDS011;38449;52.696;6.186;2023-05-31T06:18:00;11.20;;;6.03;;
52542;SDS011;38449;52.696;6.186;2023-05-31T06:20:27;9.70;;;5.95;;
52542;SDS011;38449;52.696;6.186;2023-05-31T06:22:53;8.10;;;5.03;;
52542;SDS011;38449;52.696;6.186;2023-05-31T06:25:20;8.95;;;5.97;;
52542;SDS011;38449;52.696;6.186;2023-05-31T06:27:47;9.65;;;5.32;;
52542;SDS011;38449;52.696;6.186;2023-05-31T06:30:14;9.93;;;5.35;;
52542;SDS011;38449;52.696;6.186;2023-05-31T06:32:41;11.68;;;6.10;;
52542;SDS011;38449;52.696;6.186;2023-05-31T06:35:07;9.73;;;5.72;;
52542;SDS011;38449;52.696;6.186;2023-05-31T06:37:33;8.05;;;5.63;;
52542;SDS011;38449;52.696;6.186;2023-05-31T06:40:00;8.77;;;5.18;;
52542;SDS011;38449;52.696;6.186;2023-05-31T06:42:26;14.13;;;5.93;;
52542;SDS011;38449;52.696;6.186;2023-05-31T06:44:52;9.52;;;5.10;;
52542;SDS011;38449;52.696;6.186;2023-05-31T06:47:21;8.60;;;4.97;;
52542;SDS011;38449;52.696;6.186;2023-05-31T06:49:47;8.05;;;5.03;;
52542;SDS011;38449;52.696;6.186;2023-05-31T06:52:13;10.38;;;5.50;;
52542;SDS011;38449;52.696;6.186;2023-05-31T06:54:40;8.02;;;4.72;;
52542;SDS011;38449;52.696;6.186;2023-05-31T06:57:08;7.43;;;4.80;;
52542;SDS011;38449;52.696;6.186;2023-05-31T06:59:35;10.48;;;5.35;;
52542;SDS011;38449;52.696;6.186;2023-05-31T07:02:01;10.85;;;5.35;;
52542;SDS011;38449;52.696;6.186;2023-05-31T07:04:28;9.45;;;4.78;;
52542;SDS011;38449;52.696;6.186;2023-05-31T07:06:54;8.98;;;5.03;;
52542;SDS011;38449;52.696;6.186;2023-05-31T07:09:21;11.32;;;5.20;;
52542;SDS011;38449;52.696;6.186;2023-05-31T07:11:47;12.82;;;5.18;;
52542;SDS011;38449;52.696;6.186;2023-05-31T07:14:14;11.57;;;5.20;;
52542;SDS011;38449;52.696;6.186;2023-05-31T07:16:40;8.70;;;5.03;;
52542;SDS011;38449;52.696;6.186;2023-05-31T07:19:06;8.70;;;4.70;;
52542;SDS011;38449;52.696;6.186;2023-05-31T07:21:32;8.02;;;5.28;;
52542;SDS011;38449;52.696;6.186;2023-05-31T07:23:59;10.20;;;5.03;;
52542;SDS011;38449;52.696;6.186;2023-05-31T07:26:26;7.88;;;4.85;;
52542;SDS011;38449;52.696;6.186;2023-05-31T07:28:52;10.77;;;5.97;;
52542;SDS011;38449;52.696;6.186;2023-05-31T07:31:18;12.10;;;5.43;;
52542;SDS011;38449;52.696;6.186;2023-05-31T07:33:46;8.65;;;5.15;;
52542;SDS011;38449;52.696;6.186;2023-05-31T07:36:12;8.98;;;5.15;;
52542;SDS011;38449;52.696;6.186;2023-05-31T07:38:38;9.85;;;5.40;;
52542;SDS011;38449;52.696;6.186;2023-05-31T07:41:05;10.35;;;5.60;;
52542;SDS011;38449;52.696;6.186;2023-05-31T07:43:31;7.60;;;5.15;;
52542;SDS011;38449;52.696;6.186;2023-05-31T07:45:58;10.57;;;5.32;;
52542;SDS011;38449;52.696;6.186;2023-05-31T07:48:25;8.00;;;5.15;;
52542;SDS011;38449;52.696;6.186;2023-05-31T07:50:51;9.05;;;5.40;;
52542;SDS011;38449;52.696;6.186;2023-05-31T07:53:17;9.50;;;5.55;;
52542;SDS011;38449;52.696;6.186;2023-05-31T07:55:44;9.77;;;4.82;;
52542;SDS011;38449;52.696;6.186;2023-05-31T07:58:10;8.05;;;4.72;;
52542;SDS011;38449;52.696;6.186;2023-05-31T08:00:39;10.00;;;5.50;;
52542;SDS011;38449;52.696;6.186;2023-05-31T08:03:06;8.02;;;4.85;;
52542;SDS011;38449;52.696;6.186;2023-05-31T08:05:32;7.65;;;4.80;;
52542;SDS011;38449;52.696;6.186;2023-05-31T08:07:58;9.57;;;4.93;;
52542;SDS011;38449;52.696;6.186;2023-05-31T08:10:25;9.98;;;5.22;;
52542;SDS011;38449;52.696;6.186;2023-05-31T08:12:52;10.27;;;4.80;;
52542;SDS011;38449;52.696;6.186;2023-05-31T08:15:18;8.30;;;5.07;;
52542;SDS011;38449;52.696;6.186;2023-05-31T08:17:44;9.85;;;5.35;;
52542;SDS011;38449;52.696;6.186;2023-05-31T08:20:12;8.90;;;4.80;;
52542;SDS011;38449;52.696;6.186;2023-05-31T08:22:43;7.32;;;4.95;;
52542;SDS011;38449;52.696;6.186;2023-05-31T08:25:10;8.93;;;5.13;;
52542;SDS011;38449;52.696;6.186;2023-05-31T08:27:42;8.88;;;5.20;;
52542;SDS011;38449;52.696;6.186;2023-05-31T08:30:10;10.60;;;5.22;;
52542;SDS011;38449;52.696;6.186;2023-05-31T08:32:37;9.27;;;5.32;;
52542;SDS011;38449;52.696;6.186;2023-05-31T08:35:04;12.10;;;5.22;;
52542;SDS011;38449;52.696;6.186;2023-05-31T08:37:37;8.73;;;4.60;;
52542;SDS011;38449;52.696;6.186;2023-05-31T08:40:07;9.25;;;5.15;;
52542;SDS011;38449;52.696;6.186;2023-05-31T08:42:40;8.77;;;4.90;;
52542;SDS011;38449;52.696;6.186;2023-05-31T08:45:12;7.13;;;4.57;;
52542;SDS011;38449;52.696;6.186;2023-05-31T08:47:39;9.35;;;5.20;;
52542;SDS011;38449;52.696;6.186;2023-05-31T08:50:10;8.13;;;4.82;;
52542;SDS011;38449;52.696;6.186;2023-05-31T08:52:37;7.30;;;4.32;;
52542;SDS011;38449;52.696;6.186;2023-05-31T08:55:04;7.40;;;4.50;;
52542;SDS011;38449;52.696;6.186;2023-05-31T08:57:31;10.35;;;4.80;;
52542;SDS011;38449;52.696;6.186;2023-05-31T09:00:00;8.13;;;4.80;;
52542;SDS011;38449;52.696;6.186;2023-05-31T09:02:33;9.07;;;5.25;;
52542;SDS011;38449;52.696;6.186;2023-05-31T09:05:00;7.88;;;4.47;;
52542;SDS011;38449;52.696;6.186;2023-05-31T09:07:28;9.45;;;5.07;;
52542;SDS011;38449;52.696;6.186;2023-05-31T09:09:54;8.40;;;4.60;;
52542;SDS011;38449;52.696;6.186;2023-05-31T09:12:21;8.98;;;4.47;;
52542;SDS011;38449;52.696;6.186;2023-05-31T09:14:47;10.23;;;5.13;;
52542;SDS011;38449;52.696;6.186;2023-05-31T09:17:14;8.20;;;4.60;;
52542;SDS011;38449;52.696;6.186;2023-05-31T09:19:40;9.35;;;4.90;;
52542;SDS011;38449;52.696;6.186;2023-05-31T09:22:14;7.95;;;4.07;;
52542;SDS011;38449;52.696;6.186;2023-05-31T09:24:48;9.35;;;4.63;;
52542;SDS011;38449;52.696;6.186;2023-05-31T09:27:25;9.10;;;4.57;;
52542;SDS011;38449;52.696;6.186;2023-05-31T09:29:59;10.82;;;4.93;;
52542;SDS011;38449;52.696;6.186;2023-05-31T09:32:34;8.90;;;4.70;;
52542;SDS011;38449;52.696;6.186;2023-05-31T09:35:11;9.10;;;4.18;;
52542;SDS011;38449;52.696;6.186;2023-05-31T09:37:46;8.07;;;4.70;;
52542;SDS011;38449;52.696;6.186;2023-05-31T09:40:23;8.85;;;4.45;;
52542;SDS011;38449;52.696;6.186;2023-05-31T09:45:18;8.70;;;4.70;;
52542;SDS011;38449;52.696;6.186;2023-05-31T09:47:46;10.77;;;4.60;;
52542;SDS011;38449;52.696;6.186;2023-05-31T09:50:16;7.50;;;4.40;;
52542;SDS011;38449;52.696;6.186;2023-05-31T09:52:44;8.43;;;4.07;;
52542;SDS011;38449;52.696;6.186;2023-05-31T09:55:12;11.05;;;5.20;;
52542;SDS011;38449;52.696;6.186;2023-05-31T09:57:39;8.63;;;4.57;;
52542;SDS011;38449;52.696;6.186;2023-05-31T10:00:07;7.50;;;3.92;;
52542;SDS011;38449;52.696;6.186;2023-05-31T10:02:44;8.50;;;4.22;;
52542;SDS011;38449;52.696;6.186;2023-05-31T10:05:12;10.10;;;4.75;;
52542;SDS011;38449;52.696;6.186;2023-05-31T10:07:43;11.32;;;5.68;;
52542;SDS011;38449;52.696;6.186;2023-05-31T10:10:11;9.82;;;5.10;;
52542;SDS011;38449;52.696;6.186;2023-05-31T10:12:42;10.93;;;4.40;;
52542;SDS011;38449;52.696;6.186;2023-05-31T10:15:25;7.38;;;4.65;;
52542;SDS011;38449;52.696;6.186;2023-05-31T10:20:28;7.63;;;4.57;;
52542;SDS011;38449;52.696;6.186;2023-05-31T10:23:00;7.30;;;4.35;;
52542;SDS011;38449;52.696;6.186;2023-05-31T10:25:28;7.05;;;4.47;;
52542;SDS011;38449;52.696;6.186;2023-05-31T10:28:00;8.40;;;4.93;;
52542;SDS011;38449;52.696;6.186;2023-05-31T10:30:32;10.88;;;4.60;;
52542;SDS011;38449;52.696;6.186;2023-05-31T10:35:33;8.38;;;4.70;;
52542;SDS011;38449;52.696;6.186;2023-05-31T10:38:00;8.57;;;4.68;;
52542;SDS011;38449;52.696;6.186;2023-05-31T10:40:38;8.32;;;4.65;;
52542;SDS011;38449;52.696;6.186;2023-05-31T10:43:24;7.97;;;4.90;;
52542;SDS011;38449;52.696;6.186;2023-05-31T10:46:08;7.28;;;4.40;;
52542;SDS011;38449;52.696;6.186;2023-05-31T10:51:15;8.55;;;4.20;;
52542;SDS011;38449;52.696;6.186;2023-05-31T10:53:43;7.35;;;4.57;;
52542;SDS011;38449;52.696;6.186;2023-05-31T10:56:13;7.18;;;4.85;;
52542;SDS011;38449;52.696;6.186;2023-05-31T10:58:41;7.55;;;4.53;;
52542;SDS011;38449;52.696;6.186;2023-05-31T11:01:12;8.82;;;4.82;;
52542;SDS011;38449;52.696;6.186;2023-05-31T11:03:43;9.02;;;4.65;;
52542;SDS011;38449;52.696;6.186;2023-05-31T11:06:14;11.38;;;4.85;;
52542;SDS011;38449;52.696;6.186;2023-05-31T11:08:55;6.32;;;4.00;;
52542;SDS011;38449;52.696;6.186;2023-05-31T11:14:08;9.70;;;5.40;;
52542;SDS011;38449;52.696;6.186;2023-05-31T11:19:15;11.80;;;5.15;;
52542;SDS011;38449;52.696;6.186;2023-05-31T11:21:46;9.60;;;4.53;;
52542;SDS011;38449;52.696;6.186;2023-05-31T11:24:29;6.50;;;3.97;;
52542;SDS011;38449;52.696;6.186;2023-05-31T11:26:59;9.27;;;5.07;;
52542;SDS011;38449;52.696;6.186;2023-05-31T11:32:12;7.97;;;4.68;;
52542;SDS011;38449;52.696;6.186;2023-05-31T11:34:52;9.60;;;4.07;;
52542;SDS011;38449;52.696;6.186;2023-05-31T11:37:20;10.88;;;4.57;;
52542;SDS011;38449;52.696;6.186;2023-05-31T11:39:49;7.93;;;4.07;;
52542;SDS011;38449;52.696;6.186;2023-05-31T11:42:15;7.47;;;4.00;;
52542;SDS011;38449;52.696;6.186;2023-05-31T11:44:43;7.97;;;3.80;;
52542;SDS011;38449;52.696;6.186;2023-05-31T11:47:16;7.82;;;3.88;;
52542;SDS011;38449;52.696;6.186;2023-05-31T11:49:47;6.88;;;4.05;;
52542;SDS011;38449;52.696;6.186;2023-05-31T11:52:14;7.85;;;3.97;;
52542;SDS011;38449;52.696;6.186;2023-05-31T11:54:42;6.63;;;4.05;;
52542;SDS011;38449;52.696;6.186;2023-05-31T11:57:11;8.00;;;3.63;;
52542;SDS011;38449;52.696;6.186;2023-05-31T11:59:38;6.28;;;3.83;;
52542;SDS011;38449;52.696;6.186;2023-05-31T12:02:06;5.97;;;3.97;;
52542;SDS011;38449;52.696;6.186;2023-05-31T12:04:40;7.15;;;3.60;;
52542;SDS011;38449;52.696;6.186;2023-05-31T12:07:11;6.38;;;3.50;;
52542;SDS011;38449;52.696;6.186;2023-05-31T12:09:41;7.20;;;4.18;;
52542;SDS011;38449;52.696;6.186;2023-05-31T12:12:07;7.97;;;4.10;;
52542;SDS011;38449;52.696;6.186;2023-05-31T12:14:34;7.70;;;4.32;;
52542;SDS011;38449;52.696;6.186;2023-05-31T12:17:04;9.70;;;4.03;;
52542;SDS011;38449;52.696;6.186;2023-05-31T12:19:31;9.00;;;4.50;;
52542;SDS011;38449;52.696;6.186;2023-05-31T12:21:58;8.00;;;4.32;;
52542;SDS011;38449;52.696;6.186;2023-05-31T12:24:26;11.13;;;4.60;;
52542;SDS011;38449;52.696;6.186;2023-05-31T12:26:52;10.63;;;4.75;;
52542;SDS011;38449;52.696;6.186;2023-05-31T12:29:22;7.97;;;3.80;;
52542;SDS011;38449;52.696;6.186;2023-05-31T12:31:59;8.82;;;4.07;;
52542;SDS011;38449;52.696;6.186;2023-05-31T12:34:28;10.10;;;5.20;;
52542;SDS011;38449;52.696;6.186;2023-05-31T12:36:56;10.82;;;5.20;;
52542;SDS011;38449;52.696;6.186;2023-05-31T12:39:24;9.45;;;4.47;;
52542;SDS011;38449;52.696;6.186;2023-05-31T12:41:50;7.57;;;4.30;;
52542;SDS011;38449;52.696;6.186;2023-05-31T12:44:17;8.48;;;4.25;;
52542;SDS011;38449;52.696;6.186;2023-05-31T12:46:46;9.13;;;4.32;;
52542;SDS011;38449;52.696;6.186;2023-05-31T12:49:25;11.73;;;5.13;;
52542;SDS011;38449;52.696;6.186;2023-05-31T12:52:05;8.65;;;4.38;;
52542;SDS011;38449;52.696;6.186;2023-05-31T12:54:33;8.07;;;4.70;;
52542;SDS011;38449;52.696;6.186;2023-05-31T12:57:02;8.35;;;4.43;;
52542;SDS011;38449;52.696;6.186;2023-05-31T12:59:30;9.10;;;5.38;;
52542;SDS011;38449;52.696;6.186;2023-05-31T13:01:57;9.38;;;4.57;;
52542;SDS011;38449;52.696;6.186;2023-05-31T13:04:24;10.57;;;4.85;;
52542;SDS011;38449;52.696;6.186;2023-05-31T13:06:51;9.63;;;5.13;;
52542;SDS011;38449;52.696;6.186;2023-05-31T13:09:23;10.73;;;4.95;;
52542;SDS011;38449;52.696;6.186;2023-05-31T13:11:50;9.13;;;4.50;;
52542;SDS011;38449;52.696;6.186;2023-05-31T13:14:20;11.15;;;5.40;;
52542;SDS011;38449;52.696;6.186;2023-05-31T13:16:48;12.45;;;5.28;;
52542;SDS011;38449;52.696;6.186;2023-05-31T13:19:14;10.13;;;4.80;;
52542;SDS011;38449;52.696;6.186;2023-05-31T13:21:40;9.90;;;5.45;;
52542;SDS011;38449;52.696;6.186;2023-05-31T13:24:07;11.27;;;5.32;;
52542;SDS011;38449;52.696;6.186;2023-05-31T13:26:35;8.75;;;5.25;;
52542;SDS011;38449;52.696;6.186;2023-05-31T13:29:02;8.45;;;5.43;;
52542;SDS011;38449;52.696;6.186;2023-05-31T13:31:30;9.60;;;5.60;;
52542;SDS011;38449;52.696;6.186;2023-05-31T13:33:56;9.35;;;5.03;;
52542;SDS011;38449;52.696;6.186;2023-05-31T13:36:23;10.80;;;5.60;;
52542;SDS011;38449;52.696;6.186;2023-05-31T13:38:52;9.77;;;5.38;;
52542;SDS011;38449;52.696;6.186;2023-05-31T13:41:18;11.70;;;5.15;;
52542;SDS011;38449;52.696;6.186;2023-05-31T13:43:48;7.50;;;4.65;;
52542;SDS011;38449;52.696;6.186;2023-05-31T13:46:15;8.50;;;5.10;;
52542;SDS011;38449;52.696;6.186;2023-05-31T13:48:42;7.40;;;4.70;;
52542;SDS011;38449;52.696;6.186;2023-05-31T13:51:09;7.95;;;5.10;;
52542;SDS011;38449;52.696;6.186;2023-05-31T13:53:37;9.32;;;5.25;;
52542;SDS011;38449;52.696;6.186;2023-05-31T13:56:05;10.60;;;4.97;;
52542;SDS011;38449;52.696;6.186;2023-05-31T13:58:34;9.30;;;4.85;;
52542;SDS011;38449;52.696;6.186;2023-05-31T14:01:05;6.13;;;4.70;;
52542;SDS011;38449;52.696;6.186;2023-05-31T14:03:34;6.40;;;4.40;;
52542;SDS011;38449;52.696;6.186;2023-05-31T14:06:02;6.18;;;4.30;;
52542;SDS011;38449;52.696;6.186;2023-05-31T14:08:28;8.00;;;4.72;;
52542;SDS011;38449;52.696;6.186;2023-05-31T14:10:54;8.07;;;4.78;;
52542;SDS011;38449;52.696;6.186;2023-05-31T14:13:21;8.18;;;5.00;;
52542;SDS011;38449;52.696;6.186;2023-05-31T14:15:47;9.02;;;4.65;;
52542;SDS011;38449;52.696;6.186;2023-05-31T14:18:14;7.05;;;4.35;;
52542;SDS011;38449;52.696;6.186;2023-05-31T14:20:40;7.60;;;4.43;;
52542;SDS011;38449;52.696;6.186;2023-05-31T14:23:07;6.13;;;4.15;;
52542;SDS011;38449;52.696;6.186;2023-05-31T14:25:33;10.60;;;4.78;;
52542;SDS011;38449;52.696;6.186;2023-05-31T14:27:59;6.88;;;4.13;;
52542;SDS011;38449;52.696;6.186;2023-05-31T14:30:25;6.65;;;4.38;;
52542;SDS011;38449;52.696;6.186;2023-05-31T14:32:54;11.18;;;4.40;;
52542;SDS011;38449;52.696;6.186;2023-05-31T14:35:22;6.57;;;3.45;;
52542;SDS011;38449;52.696;6.186;2023-05-31T14:37:49;7.43;;;4.07;;
52542;SDS011;38449;52.696;6.186;2023-05-31T14:40:15;6.80;;;3.50;;
52542;SDS011;38449;52.696;6.186;2023-05-31T14:42:42;6.43;;;3.25;;
52542;SDS011;38449;52.696;6.186;2023-05-31T14:45:08;6.45;;;3.90;;
52542;SDS011;38449;52.696;6.186;2023-05-31T14:47:35;6.18;;;3.30;;
52542;SDS011;38449;52.696;6.186;2023-05-31T14:50:02;5.93;;;3.85;;
52542;SDS011;38449;52.696;6.186;2023-05-31T14:52:29;5.97;;;3.42;;
52542;SDS011;38449;52.696;6.186;2023-05-31T14:54:55;6.97;;;3.33;;
52542;SDS011;38449;52.696;6.186;2023-05-31T14:57:22;6.05;;;3.15;;
52542;SDS011;38449;52.696;6.186;2023-05-31T14:59:48;8.43;;;3.75;;
52542;SDS011;38449;52.696;6.186;2023-05-31T15:02:14;8.30;;;3.60;;
52542;SDS011;38449;52.696;6.186;2023-05-31T15:04:40;6.00;;;3.40;;
52542;SDS011;38449;52.696;6.186;2023-05-31T15:07:07;5.50;;;3.13;;
52542;SDS011;38449;52.696;6.186;2023-05-31T15:09:34;6.32;;;3.17;;
52542;SDS011;38449;52.696;6.186;2023-05-31T15:12:02;5.13;;;2.95;;